Time;durP1;ratioP1;P1;durP2;ratioP2;P2;SDS_P1;SDS_P2;PMS_P1;PMS_P2;Temp;Humidity;BMP_temperature;BMP_pressure;BME280_temperature;BME280_humidity;BME280_pressure;Samples;Min_cycle;Max_cycle;Signal;HPM_P1;HPM_P2
2021/12/02 00:01:09;;;;;;;5.32;1.38;;;6.40;79.70;;;;;;4975757;28;20035;-80
2021/12/02 00:03:35;;;;;;;5.40;1.35;;;6.40;79.80;;;;;;4980808;28;20484;-80
2021/12/02 00:06:02;;;;;;;4.85;1.30;;;6.40;79.80;;;;;;4979947;28;20019;-79
2021/12/02 00:08:28;;;;;;;4.70;1.67;;;6.40;79.80;;;;;;4979041;28;20011;-80
2021/12/02 00:10:54;;;;;;;3.63;1.45;;;6.40;79.80;;;;;;4987276;28;20076;-80
2021/12/02 00:13:24;;;;;;;7.63;1.70;;;6.40;79.80;;;;;;4980299;28;20477;-79
2021/12/02 00:21:04;;;;;;;3.70;1.45;;;6.40;79.70;;;;;;4984377;28;20621;-80
2021/12/02 00:23:41;;;;;;;5.90;1.60;;;6.50;79.80;;;;;;4982885;28;20018;-80
2021/12/02 00:26:15;;;;;;;4.65;1.40;;;6.50;79.80;;;;;;4984600;28;20031;-80
2021/12/02 00:28:41;;;;;;;4.93;1.40;;;6.40;79.80;;;;;;4982753;28;20034;-80
2021/12/02 00:31:17;;;;;;;4.82;1.80;;;6.40;80.00;;;;;;4978464;28;20026;-80
2021/12/02 00:33:50;;;;;;;4.15;1.55;;;6.30;80.10;;;;;;4973856;28;20093;-81
2021/12/02 00:36:17;;;;;;;4.53;1.58;;;6.40;80.30;;;;;;4978979;28;20023;-80
2021/12/02 00:38:44;;;;;;;3.72;1.42;;;6.30;80.30;;;;;;4975688;28;20035;-80
2021/12/02 00:41:15;;;;;;;4.53;1.42;;;6.30;80.50;;;;;;4980346;28;20046;-80
2021/12/02 00:43:41;;;;;;;3.33;1.50;;;6.30;80.60;;;;;;4975288;28;20053;-80
2021/12/02 00:46:10;;;;;;;4.25;1.25;;;6.30;80.60;;;;;;4970766;28;20117;-81
2021/12/02 00:48:36;;;;;;;3.20;1.48;;;6.40;80.80;;;;;;4986380;28;20035;-80
2021/12/02 00:51:03;;;;;;;5.97;1.55;;;6.40;80.80;;;;;;4984759;28;20082;-81
2021/12/02 00:53:32;;;;;;;3.97;1.35;;;6.40;80.80;;;;;;4982789;28;20030;-80
2021/12/02 00:56:02;;;;;;;4.10;1.30;;;6.30;80.80;;;;;;4974742;28;20129;-79
2021/12/02 00:58:30;;;;;;;6.10;1.73;;;6.30;80.90;;;;;;4981280;28;20042;-79
2021/12/02 01:00:57;;;;;;;3.60;1.40;;;6.20;81.00;;;;;;4973019;28;20499;-79
2021/12/02 01:03:24;;;;;;;4.35;1.10;;;6.30;81.10;;;;;;4990061;28;20592;-81
2021/12/02 01:05:50;;;;;;;3.45;1.23;;;6.20;81.10;;;;;;4987398;28;20037;-79
2021/12/02 01:08:17;;;;;;;3.05;1.10;;;6.20;81.30;;;;;;4975810;28;20105;-79
2021/12/02 01:10:43;;;;;;;1.92;1.08;;;6.20;81.30;;;;;;4990104;28;20034;-80
2021/12/02 01:13:08;;;;;;;3.45;1.20;;;6.10;81.30;;;;;;4985178;28;20444;-79
2021/12/02 01:15:34;;;;;;;2.78;1.20;;;6.10;81.40;;;;;;4981888;28;20034;-80
2021/12/02 01:18:00;;;;;;;1.90;1.00;;;6.10;81.50;;;;;;4989128;28;20528;-80
2021/12/02 01:20:26;;;;;;;3.42;1.10;;;6.20;81.50;;;;;;4985445;28;20125;-80
2021/12/02 01:22:53;;;;;;;3.17;1.15;;;6.20;81.50;;;;;;4974853;28;20030;-80
2021/12/02 01:25:19;;;;;;;2.83;1.10;;;6.30;81.60;;;;;;4984255;28;20116;-80
2021/12/02 01:27:48;;;;;;;3.67;1.23;;;6.30;81.50;;;;;;4989199;28;20018;-80
2021/12/02 01:30:14;;;;;;;2.30;1.00;;;6.30;81.50;;;;;;4974525;28;20034;-80
2021/12/02 01:32:40;;;;;;;4.15;1.13;;;6.30;81.30;;;;;;4986118;28;20081;-80
2021/12/02 01:35:07;;;;;;;2.95;1.50;;;6.30;81.30;;;;;;4975896;28;20701;-79
2021/12/02 01:37:33;;;;;;;2.95;1.30;;;6.30;81.30;;;;;;4978182;28;20026;-80
2021/12/02 01:39:59;;;;;;;2.88;1.00;;;6.30;81.30;;;;;;4986794;28;20097;-80
2021/12/02 01:42:28;;;;;;;2.72;1.15;;;6.30;81.30;;;;;;4984560;28;20035;-81
2021/12/02 01:44:56;;;;;;;2.45;1.20;;;6.30;81.40;;;;;;4974844;28;20038;-81
2021/12/02 01:47:25;;;;;;;2.22;1.20;;;6.20;81.50;;;;;;4992914;28;20030;-81
2021/12/02 01:49:55;;;;;;;3.60;1.45;;;6.20;81.70;;;;;;4981228;28;20018;-80
2021/12/02 01:52:26;;;;;;;4.45;1.17;;;6.20;81.80;;;;;;4990590;28;20030;-81
2021/12/02 01:55:12;;;;;;;4.88;1.20;;;6.20;81.80;;;;;;4982509;28;20061;-80
2021/12/02 01:57:41;;;;;;;2.15;0.90;;;6.20;82.00;;;;;;4982105;28;20049;-81
2021/12/02 02:00:15;;;;;;;2.78;1.30;;;6.20;81.90;;;;;;4980177;28;20397;-80
2021/12/02 02:02:41;;;;;;;3.88;1.20;;;6.20;82.00;;;;;;4983798;28;20114;-80
2021/12/02 02:05:12;;;;;;;2.72;1.30;;;6.20;82.10;;;;;;4974273;28;20023;-80
2021/12/02 02:08:01;;;;;;;3.50;1.23;;;6.20;82.20;;;;;;4982670;28;20027;-80
2021/12/02 02:10:29;;;;;;;4.03;1.85;;;6.20;82.30;;;;;;4983894;28;20509;-80
2021/12/02 02:12:58;;;;;;;1.85;1.30;;;6.20;82.30;;;;;;4981002;28;20366;-80
2021/12/02 02:15:25;;;;;;;3.15;1.30;;;6.20;82.40;;;;;;4984966;28;20031;-79
2021/12/02 02:18:01;;;;;;;2.80;1.30;;;6.10;82.40;;;;;;4989240;28;20023;-81
2021/12/02 02:23:24;;;;;;;2.95;1.15;;;6.10;82.50;;;;;;4990303;28;20034;-79
2021/12/02 02:25:49;;;;;;;2.67;1.10;;;6.10;82.60;;;;;;4984827;28;20014;-79
2021/12/02 02:28:15;;;;;;;1.85;1.25;;;6.00;82.70;;;;;;4976212;28;20474;-80
2021/12/02 02:30:41;;;;;;;1.98;1.02;;;6.00;82.80;;;;;;4973728;28;20363;-80
2021/12/02 02:33:10;;;;;;;2.85;1.15;;;6.00;82.80;;;;;;4981378;28;20022;-79
2021/12/02 02:35:36;;;;;;;1.50;1.00;;;6.00;82.90;;;;;;4984685;28;20037;-79
2021/12/02 02:38:02;;;;;;;1.52;1.05;;;6.00;82.90;;;;;;4989594;28;20470;-79
2021/12/02 02:40:28;;;;;;;1.05;0.95;;;5.90;82.90;;;;;;4973138;28;20019;-79
2021/12/02 02:42:59;;;;;;;2.25;1.08;;;5.90;83.00;;;;;;4976759;28;20030;-79
2021/12/02 02:45:25;;;;;;;2.28;1.00;;;5.90;83.10;;;;;;4980594;28;20030;-79
2021/12/02 02:47:51;;;;;;;3.53;1.00;;;5.90;83.10;;;;;;4973158;28;20029;-79
2021/12/02 02:50:17;;;;;;;1.80;0.82;;;5.90;83.20;;;;;;4983049;28;20023;-79
2021/12/02 02:52:44;;;;;;;2.38;1.08;;;5.90;83.30;;;;;;4988691;28;20041;-79
2021/12/02 02:55:18;;;;;;;2.85;1.00;;;5.80;83.20;;;;;;4990620;28;20056;-79
2021/12/02 02:57:54;;;;;;;1.45;0.90;;;5.80;83.30;;;;;;4973116;28;20098;-79
2021/12/02 03:00:27;;;;;;;3.25;1.02;;;5.80;83.30;;;;;;4989802;28;20430;-79
2021/12/02 03:03:40;;;;;;;1.90;1.10;;;5.70;83.40;;;;;;4976100;28;20056;-79
2021/12/02 03:06:06;;;;;;;1.50;0.70;;;5.70;83.50;;;;;;4989714;28;20034;-79
2021/12/02 03:08:37;;;;;;;2.40;0.95;;;5.70;83.60;;;;;;4979707;28;20034;-80
2021/12/02 03:11:03;;;;;;;3.60;1.30;;;5.70;83.70;;;;;;4991400;28;20049;-80
2021/12/02 03:13:39;;;;;;;2.58;1.20;;;5.70;83.70;;;;;;4975428;28;20023;-80
2021/12/02 03:16:47;;;;;;;3.75;1.00;;;5.70;83.70;;;;;;4971930;28;20027;-80
2021/12/02 03:18:54;;;;;;;2.17;1.15;;;5.70;83.70;;;;;;4979966;28;20572;-80
2021/12/02 03:21:21;;;;;;;2.83;1.05;;;5.70;83.70;;;;;;4984935;28;20370;-79
2021/12/02 03:23:57;;;;;;;1.95;1.00;;;5.70;83.70;;;;;;4974152;28;20031;-77
2021/12/02 03:26:23;;;;;;;1.77;1.00;;;5.70;83.70;;;;;;4972719;28;20129;-77
2021/12/02 03:28:50;;;;;;;1.42;0.90;;;5.70;83.80;;;;;;4981488;28;20501;-78
2021/12/02 03:31:16;;;;;;;2.30;0.90;;;5.60;83.80;;;;;;4972706;28;20076;-77
2021/12/02 03:33:42;;;;;;;1.45;0.80;;;5.70;83.90;;;;;;4981644;28;20394;-77
2021/12/02 03:36:09;;;;;;;1.33;0.70;;;5.60;83.70;;;;;;4981107;28;20041;-77
2021/12/02 03:38:34;;;;;;;2.00;0.90;;;5.70;83.80;;;;;;4976135;28;20434;-78
2021/12/02 03:41:00;;;;;;;1.10;0.80;;;5.60;83.80;;;;;;4972720;28;20057;-77
2021/12/02 03:43:27;;;;;;;1.70;0.90;;;5.60;83.80;;;;;;4977790;28;20667;-77
2021/12/02 03:45:54;;;;;;;2.15;0.70;;;5.70;83.90;;;;;;4970488;28;20077;-77
2021/12/02 03:48:20;;;;;;;1.73;0.73;;;5.70;83.80;;;;;;4978610;28;20382;-77
2021/12/02 03:50:45;;;;;;;1.40;0.88;;;5.70;83.70;;;;;;4982870;28;20026;-78
2021/12/02 03:53:11;;;;;;;1.25;0.70;;;5.70;83.70;;;;;;4972645;28;20041;-77
2021/12/02 03:55:37;;;;;;;1.42;0.88;;;5.70;83.70;;;;;;4972456;28;20449;-78
2021/12/02 03:58:02;;;;;;;0.75;0.55;;;5.60;83.70;;;;;;4977706;28;20030;-80
2021/12/02 04:00:28;;;;;;;1.75;0.90;;;5.60;83.70;;;;;;4980787;28;20089;-78
2021/12/02 04:02:53;;;;;;;2.35;0.90;;;5.50;83.70;;;;;;4976503;28;20026;-78
2021/12/02 04:05:19;;;;;;;1.27;0.60;;;5.50;83.80;;;;;;4980262;28;20066;-78
2021/12/02 04:07:45;;;;;;;2.33;0.88;;;5.50;83.80;;;;;;4981059;28;20140;-78
2021/12/02 04:10:10;;;;;;;3.10;0.90;;;5.50;83.80;;;;;;4975753;28;20185;-78
2021/12/02 04:12:55;;;;;;;1.17;0.80;;;5.50;83.80;;;;;;4978666;28;20096;-77
2021/12/02 04:15:27;;;;;;;3.40;1.08;;;5.50;83.80;;;;;;4983861;28;20023;-78
2021/12/02 04:17:53;;;;;;;2.35;0.68;;;5.50;83.80;;;;;;4972684;28;20018;-78
2021/12/02 04:20:22;;;;;;;2.00;0.80;;;5.50;83.80;;;;;;4972226;28;20031;-78
2021/12/02 04:22:49;;;;;;;1.80;0.80;;;5.50;83.90;;;;;;4979965;28;20153;-78
2021/12/02 04:25:16;;;;;;;1.58;0.70;;;5.50;84.00;;;;;;4986177;28;20034;-80
2021/12/02 04:27:42;;;;;;;2.10;0.90;;;5.50;83.90;;;;;;4981996;28;20409;-79
2021/12/02 04:30:11;;;;;;;1.90;0.70;;;5.50;83.90;;;;;;4974785;28;20029;-78
2021/12/02 04:32:36;;;;;;;1.85;0.90;;;5.50;83.90;;;;;;4985546;28;20030;-78
2021/12/02 04:35:03;;;;;;;1.98;1.08;;;5.40;83.90;;;;;;4981870;28;20030;-78
2021/12/02 04:37:29;;;;;;;1.52;0.82;;;5.40;84.00;;;;;;4983869;28;20393;-78
2021/12/02 04:39:55;;;;;;;1.30;0.80;;;5.40;84.10;;;;;;4984510;28;20046;-78
2021/12/02 04:42:21;;;;;;;2.00;0.80;;;5.40;84.10;;;;;;4971304;28;20110;-77
2021/12/02 04:44:46;;;;;;;1.25;0.85;;;5.40;84.10;;;;;;4971133;28;20085;-78
2021/12/02 04:47:12;;;;;;;1.48;0.80;;;5.40;84.10;;;;;;4980934;28;20022;-78
2021/12/02 04:49:38;;;;;;;1.23;0.70;;;5.40;84.80;;;;;;4978338;28;20413;-78
2021/12/02 04:52:04;;;;;;;1.92;0.85;;;5.30;84.10;;;;;;4976668;28;20034;-78
2021/12/02 04:54:29;;;;;;;0.60;0.60;;;5.30;84.10;;;;;;4982875;28;20034;-77
2021/12/02 04:56:55;;;;;;;2.53;0.95;;;5.40;84.20;;;;;;4988928;28;20030;-77
2021/12/02 04:59:20;;;;;;;1.35;0.80;;;5.30;84.10;;;;;;4984448;28;20039;-77
2021/12/02 05:01:46;;;;;;;0.70;0.70;;;5.30;84.10;;;;;;4975403;28;20517;-76
2021/12/02 05:04:12;;;;;;;1.80;0.70;;;5.30;84.10;;;;;;4978266;28;20027;-77
2021/12/02 05:06:37;;;;;;;0.90;0.75;;;5.30;84.20;;;;;;4974806;28;20513;-76
2021/12/02 05:09:03;;;;;;;1.88;0.93;;;5.30;84.20;;;;;;4988155;28;20023;-79
2021/12/02 05:11:29;;;;;;;1.58;0.90;;;5.30;84.40;;;;;;4993983;28;20045;-77
2021/12/02 05:13:54;;;;;;;2.38;0.77;;;5.30;84.20;;;;;;4989342;28;20030;-76
2021/12/02 05:16:20;;;;;;;0.75;0.73;;;5.30;84.20;;;;;;4986085;28;20033;-76
2021/12/02 05:18:45;;;;;;;1.65;0.70;;;5.30;84.10;;;;;;4976699;28;20034;-76
2021/12/02 05:21:11;;;;;;;1.88;0.88;;;5.30;84.20;;;;;;4981671;28;20085;-76
2021/12/02 05:23:37;;;;;;;1.15;0.90;;;5.30;84.20;;;;;;4985507;28;20026;-76
2021/12/02 05:26:02;;;;;;;0.70;0.70;;;5.30;84.20;;;;;;4974470;28;20037;-76
2021/12/02 05:28:28;;;;;;;1.75;0.90;;;5.20;84.20;;;;;;4974836;28;20114;-76
2021/12/02 05:30:53;;;;;;;1.08;0.70;;;5.20;84.30;;;;;;4979734;28;20064;-77
2021/12/02 05:33:19;;;;;;;0.80;0.70;;;5.10;84.40;;;;;;4980356;28;20601;-77
2021/12/02 05:35:45;;;;;;;0.68;0.68;;;5.10;84.40;;;;;;4979690;28;20121;-77
2021/12/02 05:38:12;;;;;;;1.40;0.70;;;5.10;84.40;;;;;;4977225;28;20054;-78
2021/12/02 05:40:37;;;;;;;0.63;0.63;;;5.00;84.40;;;;;;4978098;28;20442;-78
2021/12/02 05:43:04;;;;;;;0.63;0.63;;;5.00;84.50;;;;;;4992864;28;20090;-78
2021/12/02 05:45:29;;;;;;;1.05;0.70;;;5.00;84.60;;;;;;4989391;28;20042;-77
2021/12/02 05:47:55;;;;;;;0.60;0.60;;;5.00;84.60;;;;;;4973434;28;20093;-78
2021/12/02 05:50:21;;;;;;;1.23;0.73;;;5.00;84.60;;;;;;4980541;28;20531;-77
2021/12/02 05:52:46;;;;;;;0.85;0.60;;;5.10;84.60;;;;;;4972943;28;20383;-76
2021/12/02 05:55:12;;;;;;;1.77;0.70;;;5.00;84.50;;;;;;4983995;28;20154;-77
2021/12/02 05:57:37;;;;;;;1.73;0.80;;;5.00;84.50;;;;;;4975846;28;20508;-76
2021/12/02 06:00:06;;;;;;;0.93;0.70;;;5.00;84.50;;;;;;4983307;28;20042;-77
2021/12/02 06:02:32;;;;;;;1.48;0.70;;;5.00;84.50;;;;;;4988401;28;20019;-77
2021/12/02 06:04:57;;;;;;;2.03;0.80;;;5.00;84.60;;;;;;4978966;28;20088;-77
2021/12/02 06:07:23;;;;;;;1.85;0.70;;;5.00;84.50;;;;;;4987147;28;20022;-77
2021/12/02 06:09:52;;;;;;;2.05;0.82;;;5.00;84.40;;;;;;4974045;28;20037;-77
2021/12/02 06:12:18;;;;;;;0.80;0.70;;;5.00;84.40;;;;;;4985873;28;20088;-77
2021/12/02 06:14:43;;;;;;;3.47;1.00;;;4.90;84.50;;;;;;4975651;28;20727;-77
2021/12/02 06:17:09;;;;;;;1.08;0.82;;;4.90;84.50;;;;;;4989975;28;20061;-77
2021/12/02 06:19:34;;;;;;;1.85;0.80;;;4.90;84.60;;;;;;4986878;28;20050;-78
2021/12/02 06:22:00;;;;;;;1.85;0.80;;;4.90;84.50;;;;;;4992618;28;20026;-79
2021/12/02 06:24:30;;;;;;;2.40;0.90;;;4.90;84.60;;;;;;4993177;28;20113;-79
2021/12/02 06:26:57;;;;;;;2.25;0.75;;;4.90;84.50;;;;;;4979926;28;20444;-79
2021/12/02 06:29:23;;;;;;;1.52;0.80;;;4.90;84.40;;;;;;4995637;28;20149;-78
2021/12/02 06:31:48;;;;;;;0.95;0.80;;;4.90;84.50;;;;;;4993724;28;20441;-78
2021/12/02 06:34:14;;;;;;;1.60;0.70;;;4.90;84.40;;;;;;4999607;28;20060;-79
2021/12/02 06:36:39;;;;;;;1.42;0.70;;;5.00;84.50;;;;;;4997215;28;20037;-77
2021/12/02 06:39:06;;;;;;;1.95;0.80;;;5.00;84.50;;;;;;4995026;28;20467;-77
2021/12/02 06:41:32;;;;;;;1.77;0.70;;;5.00;84.50;;;;;;4995772;28;20042;-77
2021/12/02 06:43:58;;;;;;;2.15;0.70;;;5.00;84.50;;;;;;5000276;28;20068;-77
2021/12/02 06:46:23;;;;;;;1.10;0.60;;;5.00;84.50;;;;;;4995649;28;20420;-77
2021/12/02 06:48:49;;;;;;;0.60;0.60;;;5.00;84.50;;;;;;4999652;28;20022;-77
2021/12/02 06:51:17;;;;;;;1.35;0.93;;;5.00;84.50;;;;;;4992631;28;20544;-77
2021/12/02 06:53:43;;;;;;;1.45;1.08;;;5.00;84.60;;;;;;4993259;28;20393;-77
2021/12/02 06:56:09;;;;;;;2.83;1.05;;;5.00;84.60;;;;;;4995164;28;20022;-77
2021/12/02 06:58:35;;;;;;;1.70;0.88;;;5.00;84.60;;;;;;4994631;28;20058;-77
2021/12/02 07:01:00;;;;;;;2.17;1.20;;;5.00;84.60;;;;;;4994869;28;20504;-76
2021/12/02 07:03:26;;;;;;;1.25;1.00;;;5.00;84.60;;;;;;4993280;28;20030;-75
2021/12/02 07:05:51;;;;;;;1.85;1.15;;;5.00;84.60;;;;;;4978977;28;20023;-79
2021/12/02 07:08:17;;;;;;;1.15;1.05;;;5.00;84.60;;;;;;4979259;28;20038;-77
2021/12/02 07:10:43;;;;;;;1.90;1.05;;;5.00;84.50;;;;;;4981901;28;20097;-77
2021/12/02 07:13:09;;;;;;;1.10;1.00;;;4.90;84.50;;;;;;4979542;28;20090;-77
2021/12/02 07:15:42;;;;;;;2.55;1.00;;;4.90;84.60;;;;;;4985343;28;20112;-77
2021/12/02 07:18:13;;;;;;;2.22;1.17;;;4.90;84.60;;;;;;4981098;28;20026;-77
2021/12/02 07:20:39;;;;;;;1.58;1.10;;;4.90;84.60;;;;;;4976496;28;20038;-76
2021/12/02 07:23:05;;;;;;;2.35;1.17;;;4.80;84.60;;;;;;4973756;28;20441;-76
2021/12/02 07:25:33;;;;;;;20.40;13.43;;;4.80;84.50;;;;;;4980957;28;20035;-77
2021/12/02 07:27:58;;;;;;;13.40;9.52;;;4.80;84.60;;;;;;4982432;28;20022;-76
2021/12/02 07:30:24;;;;;;;7.05;5.32;;;4.90;84.70;;;;;;4978659;28;20036;-76
2021/12/02 07:32:56;;;;;;;5.13;3.55;;;4.90;84.60;;;;;;4972303;28;20457;-75
2021/12/02 07:35:22;;;;;;;2.47;2.00;;;4.90;84.50;;;;;;4980064;28;20031;-75
2021/12/02 07:37:53;;;;;;;3.53;1.65;;;4.80;84.40;;;;;;4979824;28;20030;-75
2021/12/02 07:40:21;;;;;;;1.40;1.30;;;4.80;84.40;;;;;;4973193;28;20388;-74
2021/12/02 07:42:48;;;;;;;1.77;1.42;;;4.70;84.60;;;;;;4993565;28;20076;-73
2021/12/02 07:45:15;;;;;;;1.48;1.17;;;4.70;84.60;;;;;;4983223;28;20037;-74
2021/12/02 07:47:41;;;;;;;1.50;1.20;;;4.70;84.70;;;;;;4976778;28;20570;-74
2021/12/02 07:50:10;;;;;;;1.65;1.33;;;4.70;84.60;;;;;;4976063;28;20026;-73
2021/12/02 07:52:40;;;;;;;2.65;1.20;;;4.70;84.60;;;;;;4984843;28;20058;-74
2021/12/02 07:55:07;;;;;;;1.73;1.10;;;4.70;84.70;;;;;;4976957;28;20384;-76
2021/12/02 07:57:40;;;;;;;3.15;1.23;;;4.70;84.60;;;;;;4981418;28;20026;-76
2021/12/02 08:00:07;;;;;;;0.93;0.93;;;4.70;84.70;;;;;;4987722;28;20053;-78
2021/12/02 08:02:33;;;;;;;1.48;1.15;;;4.70;84.60;;;;;;4981522;28;20089;-77
2021/12/02 08:04:59;;;;;;;2.22;1.20;;;4.70;84.60;;;;;;4986145;28;20034;-78
2021/12/02 08:07:25;;;;;;;1.65;1.55;;;4.70;84.60;;;;;;4977117;28;20045;-76
2021/12/02 08:09:52;;;;;;;1.60;1.08;;;4.70;84.70;;;;;;4980967;28;20026;-76
2021/12/02 08:12:17;;;;;;;1.63;1.10;;;4.70;84.60;;;;;;4976985;28;20077;-76
2021/12/02 08:14:43;;;;;;;1.80;1.10;;;4.70;84.60;;;;;;4972576;28;20030;-78
2021/12/02 08:17:08;;;;;;;1.08;0.90;;;4.70;84.50;;;;;;4978619;28;20429;-79
2021/12/02 08:19:34;;;;;;;1.50;1.00;;;4.70;84.50;;;;;;4973684;28;20045;-79
2021/12/02 08:21:59;;;;;;;4.60;1.10;;;4.70;84.50;;;;;;4985191;28;20026;-78
2021/12/02 08:24:26;;;;;;;2.47;1.00;;;4.70;84.60;;;;;;4984368;28;20093;-79
2021/12/02 08:26:53;;;;;;;1.13;1.00;;;4.80;84.70;;;;;;4989775;28;20461;-79
2021/12/02 08:29:18;;;;;;;2.33;1.17;;;4.80;84.60;;;;;;4985120;28;20022;-79
2021/12/02 08:31:44;;;;;;;2.40;1.30;;;4.80;84.50;;;;;;4974576;28;20027;-79
2021/12/02 08:34:10;;;;;;;3.40;1.10;;;4.80;84.50;;;;;;4980574;28;20035;-79
2021/12/02 08:36:45;;;;;;;3.85;1.50;;;4.90;84.60;;;;;;4976992;28;20435;-79
2021/12/02 08:39:16;;;;;;;2.15;1.15;;;4.90;84.50;;;;;;4978529;28;20057;-77
2021/12/02 08:41:43;;;;;;;2.10;1.30;;;4.90;84.50;;;;;;4985872;28;20019;-76
2021/12/02 08:44:09;;;;;;;2.55;1.30;;;4.90;84.50;;;;;;4981927;28;20438;-75
2021/12/02 08:46:34;;;;;;;1.40;1.30;;;4.90;84.50;;;;;;4976384;28;20042;-76
2021/12/02 08:49:00;;;;;;;2.15;1.20;;;4.90;84.60;;;;;;4981349;28;20026;-77
2021/12/02 08:51:26;;;;;;;2.50;1.40;;;4.90;84.60;;;;;;4979811;28;20030;-77
2021/12/02 08:53:51;;;;;;;1.70;1.15;;;4.90;84.60;;;;;;4975176;28;20042;-77
2021/12/02 08:56:17;;;;;;;2.28;1.30;;;4.90;84.50;;;;;;4976303;28;20096;-76
2021/12/02 08:58:42;;;;;;;1.65;1.50;;;4.90;84.50;;;;;;4977305;28;20558;-77
2021/12/02 09:01:08;;;;;;;3.42;1.40;;;4.80;84.50;;;;;;4981781;28;20034;-77
2021/12/02 09:03:36;;;;;;;2.90;1.48;;;4.80;84.50;;;;;;4980029;28;20030;-76
2021/12/02 09:06:02;;;;;;;2.00;1.40;;;4.80;84.60;;;;;;4983371;28;20760;-74
2021/12/02 09:08:27;;;;;;;2.85;1.38;;;4.90;84.70;;;;;;4983010;28;20088;-75
2021/12/02 09:10:56;;;;;;;3.28;1.60;;;4.80;84.60;;;;;;4985531;28;20022;-76
2021/12/02 09:13:22;;;;;;;3.92;1.70;;;4.90;84.60;;;;;;4988108;28;20027;-76
2021/12/02 09:15:48;;;;;;;3.60;1.70;;;4.90;84.60;;;;;;4975559;28;20030;-76
2021/12/02 09:18:13;;;;;;;2.95;1.50;;;4.90;84.70;;;;;;4983328;28;20084;-84
2021/12/02 09:20:41;;;;;;;2.08;1.52;;;4.90;84.80;;;;;;4983718;28;20039;-78
2021/12/02 09:23:07;;;;;;;2.55;1.40;;;5.00;84.80;;;;;;4989663;28;20042;-78
2021/12/02 09:25:32;;;;;;;3.42;1.42;;;5.00;84.60;;;;;;4988315;28;20477;-76
2021/12/02 09:27:58;;;;;;;2.78;1.30;;;5.00;84.70;;;;;;4985025;28;20050;-75
2021/12/02 09:30:25;;;;;;;1.88;1.20;;;5.10;84.70;;;;;;4972312;28;20038;-76
2021/12/02 09:32:53;;;;;;;2.97;1.40;;;5.00;84.70;;;;;;4983477;28;20022;-76
2021/12/02 09:35:20;;;;;;;2.88;1.50;;;5.00;84.60;;;;;;4974149;28;20401;-76
2021/12/02 09:37:46;;;;;;;3.40;1.65;;;5.00;84.60;;;;;;4991481;28;20034;-76
2021/12/02 09:40:14;;;;;;;2.05;1.20;;;5.10;84.80;;;;;;4979939;28;20608;-76
2021/12/02 09:42:41;;;;;;;2.80;1.50;;;5.10;84.80;;;;;;4987072;28;20031;-76
2021/12/02 09:45:07;;;;;;;2.45;1.50;;;5.10;84.70;;;;;;4973252;28;20027;-79
2021/12/02 09:47:37;;;;;;;2.47;1.20;;;5.20;84.70;;;;;;4981964;28;20027;-77
2021/12/02 09:50:08;;;;;;;2.78;1.40;;;5.20;84.70;;;;;;4979709;28;20456;-76
2021/12/02 09:52:40;;;;;;;1.83;1.35;;;5.20;84.70;;;;;;4982730;28;20023;-77
2021/12/02 09:55:20;;;;;;;1.33;1.10;;;5.20;84.70;;;;;;4979595;28;20026;-77
2021/12/02 09:57:52;;;;;;;1.77;1.20;;;5.20;84.70;;;;;;4980188;28;20108;-77
2021/12/02 10:00:23;;;;;;;2.35;1.10;;;5.20;84.70;;;;;;4980838;28;20050;-76
2021/12/02 10:02:53;;;;;;;1.73;1.30;;;5.10;84.80;;;;;;4980471;28;20065;-75
2021/12/02 10:05:36;;;;;;;1.45;1.10;;;5.10;84.80;;;;;;4990218;28;20114;-77
2021/12/02 10:08:05;;;;;;;2.15;1.00;;;5.20;85.00;;;;;;4976041;28;20089;-76
2021/12/02 10:10:37;;;;;;;1.25;1.10;;;5.20;84.80;;;;;;4977961;28;20026;-76
2021/12/02 10:13:30;;;;;;;0.83;0.83;;;5.20;84.90;;;;;;4983771;28;20099;-77
2021/12/02 10:16:10;;;;;;;1.88;0.90;;;5.10;84.80;;;;;;4974067;28;20026;-76
2021/12/02 10:18:56;;;;;;;1.10;1.00;;;5.00;84.90;;;;;;4990147;28;20105;-76
2021/12/02 10:21:30;;;;;;;1.75;1.20;;;5.00;85.00;;;;;;4982013;28;20073;-77
2021/12/02 10:24:00;;;;;;;0.90;0.90;;;5.00;85.20;;;;;;4980167;28;20477;-76
2021/12/02 10:26:26;;;;;;;1.95;0.90;;;5.00;85.30;;;;;;4974414;28;20529;-77
2021/12/02 10:28:52;;;;;;;0.80;0.80;;;5.00;85.20;;;;;;4983243;28;20049;-74
2021/12/02 10:31:26;;;;;;;1.67;0.90;;;5.00;85.20;;;;;;4977829;28;20169;-75
2021/12/02 10:33:59;;;;;;;1.40;1.20;;;5.10;85.20;;;;;;4980697;28;20019;-77
2021/12/02 10:36:30;;;;;;;0.73;0.73;;;5.00;85.10;;;;;;4980118;28;20026;-75
2021/12/02 10:39:01;;;;;;;2.03;0.90;;;5.00;85.10;;;;;;4980695;28;20384;-75
2021/12/02 10:41:30;;;;;;;1.08;0.90;;;5.00;85.10;;;;;;4987327;28;20031;-77
2021/12/02 10:44:07;;;;;;;0.80;0.80;;;5.00;85.10;;;;;;4978092;28;20029;-76
2021/12/02 10:46:39;;;;;;;1.15;0.82;;;5.10;85.20;;;;;;4987815;28;20521;-74
2021/12/02 10:49:13;;;;;;;1.20;0.90;;;5.10;85.20;;;;;;4973575;28;20061;-76
2021/12/02 10:51:50;;;;;;;1.70;1.05;;;5.10;85.10;;;;;;5002535;28;20366;-77
2021/12/02 10:54:24;;;;;;;1.17;0.93;;;5.10;85.10;;;;;;4977255;28;20041;-76
2021/12/02 10:56:53;;;;;;;1.02;0.93;;;5.10;85.00;;;;;;4987084;28;20046;-78
2021/12/02 10:59:30;;;;;;;0.80;0.80;;;5.20;85.10;;;;;;4987845;28;20117;-76
2021/12/02 11:02:01;;;;;;;1.08;1.00;;;5.30;85.10;;;;;;5000814;28;20025;-76
2021/12/02 11:04:38;;;;;;;1.00;0.90;;;5.30;85.10;;;;;;4984955;28;20430;-77
2021/12/02 11:07:09;;;;;;;1.25;1.10;;;5.40;85.10;;;;;;4986339;28;20051;-78
2021/12/02 11:09:35;;;;;;;2.75;1.10;;;5.40;85.10;;;;;;4985757;28;20043;-77
2021/12/02 11:12:08;;;;;;;2.20;1.10;;;5.40;85.10;;;;;;4988300;28;20129;-76
2021/12/02 11:14:51;;;;;;;2.53;1.10;;;5.50;85.10;;;;;;4981915;28;20129;-77
2021/12/02 11:17:17;;;;;;;1.83;1.10;;;5.60;85.10;;;;;;4979651;28;20053;-76
2021/12/02 11:19:48;;;;;;;1.05;1.00;;;5.60;84.90;;;;;;4979039;28;20485;-76
2021/12/02 11:22:17;;;;;;;1.95;1.15;;;5.60;84.80;;;;;;4978523;28;20027;-77
2021/12/02 11:24:43;;;;;;;1.60;1.30;;;5.80;84.90;;;;;;4979222;28;20026;-77
2021/12/02 11:27:12;;;;;;;3.38;1.20;;;5.70;84.80;;;;;;4981044;28;20381;-77
2021/12/02 11:29:50;;;;;;;2.03;1.10;;;5.80;84.80;;;;;;4981340;28;20114;-76
2021/12/02 11:32:39;;;;;;;2.13;1.00;;;5.80;84.80;;;;;;4979717;28;20023;-77
2021/12/02 11:35:16;;;;;;;2.40;1.00;;;5.80;84.80;;;;;;4992996;28;20056;-77
2021/12/02 11:37:45;;;;;;;2.05;1.10;;;5.90;84.70;;;;;;4988635;28;20432;-77
2021/12/02 11:40:17;;;;;;;0.90;0.90;;;5.90;84.70;;;;;;4985607;28;20041;-77
2021/12/02 11:42:43;;;;;;;0.80;0.80;;;5.90;84.60;;;;;;4990043;28;20026;-77
2021/12/02 11:45:11;;;;;;;2.78;1.00;;;5.90;84.60;;;;;;4983703;28;20504;-78
2021/12/02 11:47:38;;;;;;;1.05;0.90;;;5.90;84.60;;;;;;4990121;28;20046;-79
2021/12/02 11:50:07;;;;;;;0.90;0.88;;;5.90;84.60;;;;;;4983078;28;20034;-78
2021/12/02 11:52:35;;;;;;;1.10;1.00;;;5.90;84.60;;;;;;4983230;28;20027;-78
2021/12/02 11:55:02;;;;;;;0.95;0.80;;;5.90;84.70;;;;;;4988003;28;20492;-82
2021/12/02 11:57:30;;;;;;;1.00;0.90;;;5.90;84.70;;;;;;4981030;28;20970;-77
2021/12/02 11:59:56;;;;;;;0.80;0.80;;;5.90;84.60;;;;;;4980125;28;20460;-78
2021/12/02 12:02:21;;;;;;;1.80;0.77;;;6.00;85.30;;;;;;4974410;28;20113;-79
2021/12/02 12:04:56;;;;;;;0.88;0.70;;;5.90;84.60;;;;;;4981795;28;20037;-77
2021/12/02 12:07:25;;;;;;;0.85;0.80;;;6.00;84.70;;;;;;4982481;28;20046;-78
2021/12/02 12:10:30;;;;;;;1.35;0.70;;;6.00;85.30;;;;;;4978887;28;20023;-78
2021/12/02 12:13:21;;;;;;;1.40;0.80;;;6.00;84.60;;;;;;4982087;28;20125;-78
2021/12/02 12:15:58;;;;;;;0.63;0.63;;;6.10;84.50;;;;;;4976183;28;20048;-77
2021/12/02 12:18:27;;;;;;;0.93;0.80;;;6.10;85.00;;;;;;4978897;28;20030;-78
2021/12/02 12:21:05;;;;;;;0.80;0.80;;;6.10;84.30;;;;;;4983397;28;20049;-76
2021/12/02 12:23:37;;;;;;;0.95;0.80;;;6.00;84.10;;;;;;4983705;28;20030;-76
2021/12/02 12:26:26;;;;;;;0.80;0.80;;;5.90;84.20;;;;;;4979154;28;20032;-76
2021/12/02 12:29:13;;;;;;;0.60;0.60;;;5.90;84.30;;;;;;4985575;28;20030;-76
2021/12/02 12:31:55;;;;;;;0.70;0.70;;;5.90;84.30;;;;;;4982349;28;20030;-76
2021/12/02 12:34:31;;;;;;;0.60;0.60;;;5.90;84.20;;;;;;4990757;28;20385;-76
2021/12/02 12:36:58;;;;;;;0.70;0.70;;;5.90;84.20;;;;;;4982038;28;20030;-79
2021/12/02 12:39:28;;;;;;;0.60;0.60;;;5.90;84.20;;;;;;4982224;28;20624;-76
2021/12/02 12:42:11;;;;;;;0.60;0.57;;;5.90;84.20;;;;;;4980830;28;20062;-79
2021/12/02 12:45:00;;;;;;;0.70;0.70;;;5.90;84.10;;;;;;4990249;28;20030;-79
2021/12/02 12:47:41;;;;;;;0.65;0.65;;;5.90;84.10;;;;;;4986809;28;20069;-79
2021/12/02 12:50:32;;;;;;;0.60;0.60;;;5.80;84.00;;;;;;4974060;28;20054;-80
2021/12/02 12:53:03;;;;;;;0.80;0.80;;;5.80;84.00;;;;;;4978937;28;20023;-77
2021/12/02 12:55:37;;;;;;;0.60;0.60;;;5.80;84.00;;;;;;4981982;28;20026;-76
2021/12/02 12:58:10;;;;;;;0.70;0.70;;;5.80;84.20;;;;;;4981879;28;20081;-79
2021/12/02 13:00:45;;;;;;;0.75;0.75;;;5.90;84.20;;;;;;4976740;28;20026;-76
2021/12/02 13:03:17;;;;;;;1.30;0.80;;;5.90;84.10;;;;;;4984379;28;20031;-80
2021/12/02 13:05:59;;;;;;;0.70;0.70;;;5.90;84.00;;;;;;4979875;28;20037;-77
2021/12/02 13:08:30;;;;;;;0.80;0.80;;;5.90;84.00;;;;;;4982883;28;20038;-76
2021/12/02 13:11:01;;;;;;;0.80;0.77;;;5.90;84.00;;;;;;4981438;28;20031;-76
2021/12/02 13:13:29;;;;;;;0.80;0.70;;;5.90;84.00;;;;;;4990121;28;20289;-76
2021/12/02 13:16:09;;;;;;;1.13;0.85;;;5.90;83.90;;;;;;4982388;28;20027;-76